地図

経路データ

SID SEASON NUMBER BASIN SUBBASIN NAME ISO_TIME NATURE LAT LON WMO_WIND WMO_PRES WMO_AGENCY TRACK_TYPE DIST2LAND LANDFALL IFLAG USA_AGENCY USA_ATCF_ID USA_LAT USA_LON USA_RECORD USA_STATUS USA_WIND USA_PRES USA_SSHS USA_R34_NE USA_R34_SE USA_R34_SW USA_R34_NW USA_R50_NE USA_R50_SE USA_R50_SW USA_R50_NW USA_R64_NE USA_R64_SE USA_R64_SW USA_R64_NW USA_POCI USA_ROCI USA_RMW USA_EYE TOKYO_LAT TOKYO_LON TOKYO_GRADE TOKYO_WIND TOKYO_PRES TOKYO_R50_DIR TOKYO_R50_LONG TOKYO_R50_SHORT TOKYO_R30_DIR TOKYO_R30_LONG TOKYO_R30_SHORT TOKYO_LAND CMA_LAT CMA_LON CMA_CAT CMA_WIND CMA_PRES HKO_LAT HKO_LON HKO_CAT HKO_WIND HKO_PRES NEWDELHI_LAT NEWDELHI_LON NEWDELHI_GRADE NEWDELHI_WIND NEWDELHI_PRES NEWDELHI_CI NEWDELHI_DP NEWDELHI_POCI REUNION_LAT REUNION_LON REUNION_TYPE REUNION_WIND REUNION_PRES REUNION_TNUM REUNION_CI REUNION_RMW REUNION_R34_NE REUNION_R34_SE REUNION_R34_SW REUNION_R34_NW REUNION_R50_NE REUNION_R50_SE REUNION_R50_SW REUNION_R50_NW REUNION_R64_NE REUNION_R64_SE REUNION_R64_SW REUNION_R64_NW BOM_LAT BOM_LON BOM_TYPE BOM_WIND BOM_PRES BOM_TNUM BOM_CI BOM_RMW BOM_R34_NE BOM_R34_SE BOM_R34_SW BOM_R34_NW BOM_R50_NE BOM_R50_SE BOM_R50_SW BOM_R50_NW BOM_R64_NE BOM_R64_SE BOM_R64_SW BOM_R64_NW BOM_ROCI BOM_POCI BOM_EYE BOM_POS_METHOD BOM_PRES_METHOD NADI_LAT NADI_LON NADI_CAT NADI_WIND NADI_PRES WELLINGTON_LAT WELLINGTON_LON WELLINGTON_WIND WELLINGTON_PRES DS824_LAT DS824_LON DS824_STAGE DS824_WIND DS824_PRES TD9636_LAT TD9636_LON TD9636_STAGE TD9636_WIND TD9636_PRES TD9635_LAT TD9635_LON TD9635_WIND TD9635_PRES TD9635_ROCI NEUMANN_LAT NEUMANN_LON NEUMANN_CLASS NEUMANN_WIND NEUMANN_PRES MLC_LAT MLC_LON MLC_CLASS MLC_WIND MLC_PRES USA_GUST BOM_GUST BOM_GUST_PER REUNION_GUST REUNION_GUST_PER USA_SEAHGT USA_SEARAD_NE USA_SEARAD_SE USA_SEARAD_SW USA_SEARAD_NW STORM_SPEED STORM_DIR
1950206N21089 1950 42 NI BB NOT_NAMED 1950-07-24 18:00:00 TS 21.3000 89.4000 main 44 24 O________O____ jtwc_io IO071950 21.3000 89.4000 -1 21.3000 89.4000 TC 4 288
1950206N21089 1950 42 NI BB NOT_NAMED 1950-07-24 21:00:00 TS 21.3626 89.1901 main 24 22 P________P____ IO071950 21.3626 89.1901 -1 21.3626 89.1901 TC 4 285
1950206N21089 1950 42 NI BB NOT_NAMED 1950-07-25 00:00:00 TS 21.4000 89.0000 main 22 22 O________O____ jtwc_io IO071950 21.4000 89.0000 -1 21.4000 89.0000 TC 25 3 276
1950206N21089 1950 42 NI BB NOT_NAMED 1950-07-25 03:00:00 TS 21.4000 88.8377 main 24 24 P________PO___ IO071950 21.4000 88.8424 -1 21.4000 88.8424 TC 25 21.4000 88.8000 1 3 271
1950206N21089 1950 42 NI BB NOT_NAMED 1950-07-25 06:00:00 TS 21.4060 88.6894 main 30 22 O________OP___ jtwc_io IO071950 21.4000 88.7000 -1 21.4000 88.7000 TC 25 21.4300 88.6470 1 3 280
1950206N21089 1950 42 NI BB NOT_NAMED 1950-07-25 09:00:00 TS 21.4522 88.5324 main 11 11 P________PP___ IO071950 21.4500 88.5425 -1 21.4500 88.5425 TC 25 21.4580 88.5052 1 3 288
1950206N21089 1950 42 NI BB NOT_NAMED 1950-07-25 12:00:00 TS 21.4940 88.3953 main 11 11 O________OP___ jtwc_io IO071950 21.5000 88.4000 -1 21.5000 88.4000 TC 25 21.4819 88.3858 1 2 282
1950206N21089 1950 42 NI BB NOT_NAMED 1950-07-25 15:00:00 TS 21.5000 88.2950 main 11 11 P________PO___ IO071950 21.5000 88.2925 -1 21.5000 88.2925 TC 25 21.5000 88.3000 1 2 273
1950206N21089 1950 42 NI BB NOT_NAMED 1950-07-25 18:00:00 TS 21.5041 88.2165 main 11 11 O________OP___ jtwc_io IO071950 21.5000 88.2000 -1 21.5000 88.2000 TC 25 21.5123 88.2494 1 1 287
1950206N21089 1950 42 NI BB NOT_NAMED 1950-07-25 21:00:00 TS 21.5422 88.1423 main 15 10 P________PP___ IO071950 21.5500 88.1150 -1 21.5500 88.1150 TC 25 21.5266 88.1970 1 2 295
1950206N21089 1950 42 NI BB NOT_NAMED 1950-07-26 00:00:00 TS 21.5842 88.0320 main 20 15 O________OP___ jtwc_io IO071950 21.6000 88.0000 -1 21.6000 88.0000 TC 25 21.5527 88.0961 1 3 281
1950206N21089 1950 42 NI BB NOT_NAMED 1950-07-26 03:00:00 TS 21.5899 87.8682 main 15 11 P________PO___ IO071950 21.5848 87.8523 -1 21.5848 87.8523 TC 25 21.6000 87.9000 1 4 275
1950206N21089 1950 42 NI BB NOT_NAMED 1950-07-26 06:00:00 TS 21.6221 87.5902 main 11 0 O________OP___ jtwc_io IO071950 21.6000 87.6000 -1 21.6000 87.6000 TC 25 21.6664 87.5707 1 7 283
1950206N21089 1950 42 NI BB NOT_NAMED 1950-07-26 09:00:00 TS 21.7366 87.1874 main 0 0 P________PP___ IO071950 21.7274 87.2101 -1 21.7274 87.2101 TC 25 21.7551 87.1420 1 9 288
1950206N21089 1950 42 NI BB NOT_NAMED 1950-07-26 12:00:00 TS 21.8887 86.6808 main 0 0 O________OP___ jtwc_io IO071950 21.9000 86.7000 -1 21.9000 86.7000 TC 25 21.8662 86.6424 1 10 287
1950206N21089 1950 42 NI BB NOT_NAMED 1950-07-26 15:00:00 TS 22.0334 86.1100 main 0 0 P________PO___ IO071950 22.0501 86.1150 -1 22.0501 86.1150 TC 25 22.0000 86.1000 1 11 286
1950206N21089 1950 42 NI BB NOT_NAMED 1950-07-26 18:00:00 TS 22.1872 85.5204 main 0 0 O________OP___ jtwc_io IO071950 22.2000 85.5000 -1 22.2000 85.5000 TC 25 22.1615 85.5613 1 11 286
1950206N21089 1950 42 NI BB NOT_NAMED 1950-07-26 21:00:00 TS 22.3472 84.9626 main 0 0 P________PP___ IO071950 22.3497 84.9498 -1 22.3497 84.9498 TC 25 22.3424 84.9880 1 11 287
1950206N21089 1950 42 NI BB NOT_NAMED 1950-07-27 00:00:00 TS 22.5090 84.3985 main 0 0 O________OP___ jtwc_io IO071950 22.5000 84.4000 -1 22.5000 84.4000 TC 25 22.5271 84.3956 1 11 287
1950206N21089 1950 42 NI BB NOT_NAMED 1950-07-27 03:00:00 TS 22.6666 83.7999 main 0 0 P________PO___ IO071950 22.6499 83.7999 -1 22.6499 83.7999 TC 25 22.7000 83.8000 1 11 285
1950206N21089 1950 42 NI BB NOT_NAMED 1950-07-27 06:00:00 TS 22.8130 83.2068 main 0 0 O________OP___ jtwc_io IO071950 22.8000 83.2000 -1 22.8000 83.2000 TC 25 22.8389 83.2204 1 11 285
1950206N21089 1950 42 NI BB NOT_NAMED 1950-07-27 09:00:00 TS 22.9595 82.6472 main 0 0 P________PP___ IO071950 22.9572 82.6499 -1 22.9572 82.6499 TC 25 22.9643 82.6418 1 11 285
1950206N21089 1950 42 NI BB NOT_NAMED 1950-07-27 12:00:00 TS 23.0942 82.0891 main 0 0 O________OP___ jtwc_io IO071950 23.1000 82.1000 -1 23.1000 82.1000 TC 25 23.0826 82.0673 1 11 283
1950206N21089 1950 42 NI BB NOT_NAMED 1950-07-27 15:00:00 TS 23.1999 81.5048 main 0 0 P________PO___ IO071950 23.1999 81.5072 -1 23.1999 81.5072 TC 25 23.2000 81.5000 1 11 281
1950206N21089 1950 42 NI BB NOT_NAMED 1950-07-27 18:00:00 TS 23.3110 80.9048 main 0 0 O________OP___ jtwc_io IO071950 23.3000 80.9000 -1 23.3000 80.9000 TC 25 23.3330 80.9145 1 11 283
1950206N21089 1950 42 NI BB NOT_NAMED 1950-07-27 21:00:00 TS 23.4551 80.2935 main 0 0 P________PP___ IO071950 23.4501 80.2702 -1 23.4501 80.2702 TC 25 23.4650 80.3402 1 11 285
1950206N21089 1950 42 NI BB NOT_NAMED 1950-07-28 00:00:00 TS 23.5965 79.7319 main 0 0 O________OP___ jtwc_io IO071950 23.6000 79.7000 -1 23.6000 79.7000 TC 25 23.5895 79.7958 1 10 285
1950206N21089 1950 42 NI BB NOT_NAMED 1950-07-28 03:00:00 TS 23.7098 79.2749 main 0 0 P________PO___ IO071950 23.7147 79.2624 -1 23.7147 79.2624 TC 25 23.7000 79.3000 1 8 284
1950206N21089 1950 42 NI BB NOT_NAMED 1950-07-28 06:00:00 TS 23.7934 78.8913 main 0 0 O________OP___ jtwc_io IO071950 23.8000 78.9000 -1 23.8000 78.9000 TC 25 23.7802 78.8740 1 7 282
1950206N21089 1950 42 NI BB NOT_NAMED 1950-07-28 09:00:00 TS 23.8495 78.5321 main 0 0 P________PP___ IO071950 23.8498 78.5498 -1 23.8498 78.5498 TC 25 23.8487 78.4966 1 7 280
1950206N21089 1950 42 NI BB NOT_NAMED 1950-07-28 12:00:00 TS 23.9060 78.1820 main 0 0 O________OP___ jtwc_io IO071950 23.9000 78.2000 -1 23.9000 78.2000 TC 25 23.9179 78.1459 1 7 282
1950206N21089 1950 42 NI AS NOT_NAMED 1950-07-28 15:00:00 TS 23.9900 77.8000 main 0 0 P________PO___ IO071950 23.9850 77.8000 -1 23.9850 77.8000 TC 25 24.0000 77.8000 1 7 286
1950206N21089 1950 42 NI AS NOT_NAMED 1950-07-28 18:00:00 TS 24.1016 77.4164 main 0 0 O________OP___ jtwc_io IO071950 24.1000 77.4000 -1 24.1000 77.4000 TC 25 24.1039 77.4410 1 7 290
1950206N21089 1950 42 NI AS NOT_NAMED 1950-07-28 21:00:00 TS 24.2356 77.0509 main 0 0 P________PP___ IO071950 24.2426 77.0377 -1 24.2426 77.0377 TC 25 24.2262 77.0686 1 7 293
1950206N21089 1950 42 NI AS NOT_NAMED 1950-07-29 00:00:00 TS 24.3802 76.6934 main 0 0 O________OP___ jtwc_io IO071950 24.4000 76.7000 -1 24.4000 76.7000 TC 25 24.3604 76.6868 1 7 291
1950206N21089 1950 42 NI AS NOT_NAMED 1950-07-29 03:00:00 NR 24.5000 76.3000 main 0 __________O___ IO071950 -1 TC 24.5000 76.3000 1 8 289

IBTrACS Databaseについて

本データベースは、米国NOAAが公開する1842年以降の世界の熱帯低気圧のベストトラックデータアーカイブInternational Best Track Archive for Climate Stewardship (IBTrACS)を、ウェブで閲覧しやすい形式に変換したものです。

最終更新日:2021-12-03